Time;durP1;ratioP1;P1;durP2;ratioP2;P2;SDS_P1;SDS_P2;PMS_P1;PMS_P2;Temp;Humidity;BMP_temperature;BMP_pressure;BME280_temperature;BME280_humidity;BME280_pressure;Samples;Min_cycle;Max_cycle;Signal;HPM_P1;HPM_P2
2021/11/11 00:00:51;;;;;;;17.38;9.45;;;8.20;96.00;;;;;;5026451;28;20506;-74
2021/11/11 00:03:19;;;;;;;22.13;9.70;;;8.20;96.00;;;;;;4995473;28;20478;-75
2021/11/11 00:05:45;;;;;;;18.42;8.48;;;8.20;96.10;;;;;;5026403;28;20176;-75
2021/11/11 00:08:11;;;;;;;17.77;7.80;;;8.20;96.10;;;;;;5026712;28;20037;-76
2021/11/11 00:10:39;;;;;;;18.58;9.30;;;8.10;96.10;;;;;;4994478;28;20037;-76
2021/11/11 00:13:05;;;;;;;18.38;8.55;;;8.10;96.10;;;;;;5026408;28;20022;-75
2021/11/11 00:15:31;;;;;;;15.20;8.93;;;8.10;96.10;;;;;;4994670;28;20053;-76
2021/11/11 00:17:57;;;;;;;20.05;9.30;;;8.10;96.10;;;;;;4993872;28;20041;-76
2021/11/11 00:20:26;;;;;;;16.48;9.15;;;8.10;96.10;;;;;;4995025;28;20042;-76
2021/11/11 00:22:52;;;;;;;18.67;8.88;;;8.10;96.10;;;;;;4993373;28;20474;-75
2021/11/11 00:25:21;;;;;;;19.77;8.55;;;8.00;96.10;;;;;;4995264;28;20414;-75
2021/11/11 00:27:47;;;;;;;15.88;8.50;;;8.10;96.10;;;;;;4994748;28;20030;-75
2021/11/11 00:30:15;;;;;;;15.68;8.68;;;8.00;96.10;;;;;;5026459;28;20062;-75
2021/11/11 00:32:42;;;;;;;19.17;8.93;;;8.00;96.10;;;;;;4994103;28;20030;-76
2021/11/11 00:35:11;;;;;;;19.23;9.13;;;8.00;96.10;;;;;;4994682;28;20068;-76
2021/11/11 00:37:37;;;;;;;14.90;8.27;;;8.00;96.10;;;;;;4994233;28;20140;-76
2021/11/11 00:40:05;;;;;;;15.63;8.65;;;8.00;96.20;;;;;;5026132;28;20057;-76
2021/11/11 00:42:31;;;;;;;19.17;9.48;;;7.90;96.20;;;;;;4993369;28;20022;-76
2021/11/11 00:44:56;;;;;;;18.48;9.48;;;7.90;96.20;;;;;;4992665;28;20449;-76
2021/11/11 00:47:22;;;;;;;15.38;8.70;;;7.90;96.20;;;;;;4994621;28;20460;-76
2021/11/11 00:49:48;;;;;;;16.73;9.20;;;7.90;96.20;;;;;;4992443;28;20030;-75
2021/11/11 00:52:15;;;;;;;19.38;9.57;;;7.90;96.20;;;;;;4992771;28;20121;-75
2021/11/11 00:54:41;;;;;;;21.33;9.50;;;7.90;96.30;;;;;;4993999;28;20027;-75
2021/11/11 00:57:07;;;;;;;22.27;9.48;;;7.90;96.20;;;;;;4993968;28;20021;-75
2021/11/11 00:59:33;;;;;;;17.40;8.45;;;7.90;96.20;;;;;;5024786;28;20099;-75
2021/11/11 01:02:01;;;;;;;17.85;8.50;;;7.90;96.10;;;;;;4993998;28;20089;-75
2021/11/11 01:04:27;;;;;;;19.52;9.15;;;8.00;96.10;;;;;;4994188;28;20014;-75
2021/11/11 01:06:53;;;;;;;17.63;9.07;;;8.00;96.10;;;;;;5025306;28;20172;-76
2021/11/11 01:09:19;;;;;;;17.10;9.05;;;8.10;96.00;;;;;;4994038;28;20478;-75
2021/11/11 01:11:44;;;;;;;16.70;8.10;;;8.10;95.90;;;;;;4992213;28;20463;-75
2021/11/11 01:14:10;;;;;;;17.38;9.45;;;8.10;95.90;;;;;;4993996;28;20023;-75
2021/11/11 01:16:36;;;;;;;20.75;9.18;;;8.20;95.90;;;;;;4992368;28;20422;-76
2021/11/11 01:19:02;;;;;;;18.27;10.20;;;8.20;95.80;;;;;;5025294;28;20525;-76
2021/11/11 01:21:28;;;;;;;20.13;9.35;;;8.20;95.80;;;;;;4993568;28;20106;-76
2021/11/11 01:23:54;;;;;;;17.23;8.65;;;8.20;95.90;;;;;;4993409;28;20129;-75
2021/11/11 01:26:20;;;;;;;18.40;9.50;;;8.20;95.90;;;;;;4992480;28;20437;-75
2021/11/11 01:28:46;;;;;;;16.17;9.27;;;8.20;95.90;;;;;;4993294;28;20092;-75
2021/11/11 01:31:12;;;;;;;17.38;8.60;;;8.20;95.90;;;;;;4993959;28;20455;-75
2021/11/11 01:33:38;;;;;;;15.82;8.38;;;8.20;95.90;;;;;;4993308;28;20062;-76
2021/11/11 01:36:05;;;;;;;22.52;9.93;;;8.20;95.90;;;;;;4992311;28;20053;-75
2021/11/11 01:38:31;;;;;;;18.13;9.43;;;8.20;95.90;;;;;;4992091;28;20117;-75
2021/11/11 01:40:57;;;;;;;17.67;9.90;;;8.20;95.80;;;;;;4992875;28;20101;-76
2021/11/11 01:43:23;;;;;;;20.27;10.07;;;8.10;95.80;;;;;;4992404;28;20105;-75
2021/11/11 01:45:49;;;;;;;20.65;11.40;;;8.20;95.80;;;;;;4991792;28;20030;-75
2021/11/11 01:48:16;;;;;;;19.20;10.43;;;8.20;95.80;;;;;;4992156;28;20036;-75
2021/11/11 01:50:43;;;;;;;21.58;10.57;;;8.30;95.70;;;;;;4992754;28;20459;-76
2021/11/11 01:53:11;;;;;;;21.83;10.95;;;8.30;95.70;;;;;;4993344;28;20042;-76
2021/11/11 01:55:38;;;;;;;20.42;10.57;;;8.20;95.70;;;;;;4993277;28;20041;-76
2021/11/11 01:58:04;;;;;;;18.98;9.88;;;8.30;95.70;;;;;;4991900;28;20042;-75
2021/11/11 02:00:42;;;;;;;18.63;9.75;;;8.30;95.70;;;;;;4993020;28;20096;-75
2021/11/11 02:03:09;;;;;;;19.88;11.13;;;8.30;95.60;;;;;;5024571;28;20025;-75
2021/11/11 02:05:36;;;;;;;25.10;12.55;;;8.30;95.50;;;;;;4991588;28;20029;-75
2021/11/11 02:08:03;;;;;;;19.98;11.30;;;8.40;95.50;;;;;;5024182;28;20112;-75
2021/11/11 02:10:30;;;;;;;17.40;10.25;;;8.40;95.50;;;;;;4991807;28;20117;-76
2021/11/11 02:12:56;;;;;;;20.30;10.38;;;8.40;95.40;;;;;;4992625;28;20027;-75
2021/11/11 02:15:23;;;;;;;20.40;10.60;;;8.50;95.50;;;;;;4991752;28;20019;-75
2021/11/11 02:17:50;;;;;;;21.83;11.32;;;8.50;95.50;;;;;;4991324;28;20451;-75
2021/11/11 02:20:24;;;;;;;18.27;10.05;;;8.40;95.50;;;;;;4992996;28;20030;-76
2021/11/11 02:22:52;;;;;;;20.00;10.60;;;8.50;95.50;;;;;;4992243;28;20038;-75
2021/11/11 02:25:21;;;;;;;20.75;10.93;;;8.50;95.40;;;;;;4991669;28;20084;-75
2021/11/11 02:27:48;;;;;;;22.45;11.20;;;8.50;95.40;;;;;;4991064;28;20019;-75
2021/11/11 02:30:16;;;;;;;16.98;9.70;;;8.50;95.40;;;;;;4993009;28;20466;-76
2021/11/11 02:32:43;;;;;;;15.05;7.82;;;8.60;95.30;;;;;;4992451;28;20026;-76
2021/11/11 02:35:11;;;;;;;22.17;11.05;;;8.50;95.30;;;;;;4993479;28;20026;-75
2021/11/11 02:37:40;;;;;;;20.73;11.18;;;8.50;95.20;;;;;;4991818;28;20062;-75
2021/11/11 02:40:27;;;;;;;19.92;10.65;;;8.50;95.20;;;;;;4993300;28;20085;-75
2021/11/11 02:42:53;;;;;;;21.42;10.65;;;8.60;95.20;;;;;;4992828;28;20053;-76
2021/11/11 02:45:29;;;;;;;22.27;10.48;;;8.60;95.20;;;;;;4991695;28;20073;-76
2021/11/11 02:47:55;;;;;;;20.20;11.15;;;8.50;95.20;;;;;;4992484;28;20297;-75
2021/11/11 02:50:22;;;;;;;20.65;10.43;;;8.50;95.20;;;;;;4992738;28;20537;-76
2021/11/11 02:52:50;;;;;;;18.45;10.15;;;8.60;95.20;;;;;;4992276;28;20027;-77
2021/11/11 02:55:17;;;;;;;19.75;10.02;;;8.60;95.20;;;;;;4991460;28;20470;-75
2021/11/11 02:57:45;;;;;;;22.45;10.65;;;8.60;95.30;;;;;;4992256;28;20122;-76
2021/11/11 03:00:13;;;;;;;18.27;10.10;;;8.60;95.30;;;;;;4992099;28;20080;-75
2021/11/11 03:02:40;;;;;;;19.88;9.95;;;8.60;95.20;;;;;;4992100;28;20030;-75
2021/11/11 03:05:08;;;;;;;18.92;10.10;;;8.60;95.20;;;;;;4990805;28;20030;-75
2021/11/11 03:07:34;;;;;;;21.60;10.45;;;8.70;95.20;;;;;;4991468;28;20015;-75
2021/11/11 03:10:00;;;;;;;23.63;10.63;;;8.60;95.10;;;;;;4990864;28;20030;-75
2021/11/11 03:12:26;;;;;;;20.27;10.50;;;8.60;95.20;;;;;;4993324;28;20479;-75
2021/11/11 03:14:53;;;;;;;22.20;11.77;;;8.60;95.20;;;;;;4995828;28;20105;-76
2021/11/11 03:17:19;;;;;;;21.88;11.15;;;8.50;95.20;;;;;;4994900;28;20029;-76
2021/11/11 03:19:46;;;;;;;17.58;9.50;;;8.50;95.30;;;;;;4994708;28;20109;-75
2021/11/11 03:22:16;;;;;;;18.65;9.63;;;8.50;95.30;;;;;;5028620;28;20134;-75
2021/11/11 03:24:42;;;;;;;20.85;10.65;;;8.50;95.40;;;;;;4998706;28;20030;-75
2021/11/11 03:27:10;;;;;;;19.17;10.25;;;8.50;95.40;;;;;;4996519;28;20126;-74
2021/11/11 03:29:36;;;;;;;21.42;10.38;;;8.50;95.40;;;;;;4996777;28;20034;-75
2021/11/11 03:32:04;;;;;;;17.25;10.38;;;8.50;95.40;;;;;;4996033;28;20026;-75
2021/11/11 03:34:29;;;;;;;20.30;9.93;;;8.40;95.40;;;;;;4995182;28;20049;-75
2021/11/11 03:36:56;;;;;;;23.65;9.95;;;8.40;95.40;;;;;;4995163;28;20065;-76
2021/11/11 03:39:24;;;;;;;23.80;10.15;;;8.40;95.40;;;;;;4995882;28;20058;-76
2021/11/11 03:41:51;;;;;;;20.80;10.77;;;8.40;95.40;;;;;;4994008;28;20079;-75
2021/11/11 03:44:19;;;;;;;21.13;9.50;;;8.40;95.30;;;;;;4995660;28;20026;-76
2021/11/11 03:46:47;;;;;;;21.10;9.75;;;8.40;95.30;;;;;;4995303;28;20116;-76
2021/11/11 03:49:13;;;;;;;19.83;10.30;;;8.40;95.30;;;;;;4995567;28;20062;-75
2021/11/11 03:51:39;;;;;;;17.77;9.95;;;8.40;95.30;;;;;;4994249;28;20031;-75
2021/11/11 03:54:06;;;;;;;23.52;10.95;;;8.40;95.30;;;;;;4995171;28;20400;-76
2021/11/11 03:56:34;;;;;;;20.38;10.35;;;8.40;95.40;;;;;;4995497;28;20026;-75
2021/11/11 03:59:00;;;;;;;18.70;10.05;;;8.40;95.40;;;;;;4993436;28;20046;-77
2021/11/11 04:01:26;;;;;;;18.95;9.60;;;8.40;95.40;;;;;;4995370;28;20022;-74
2021/11/11 04:03:52;;;;;;;20.50;10.13;;;8.40;95.40;;;;;;4994874;28;20022;-75
2021/11/11 04:06:18;;;;;;;19.42;10.18;;;8.50;95.40;;;;;;4993905;28;20462;-76
2021/11/11 04:08:44;;;;;;;16.80;9.25;;;8.50;95.30;;;;;;4994948;28;20386;-75
2021/11/11 04:11:09;;;;;;;19.05;10.68;;;8.50;95.30;;;;;;4994456;28;20041;-75
2021/11/11 04:13:36;;;;;;;18.23;10.10;;;8.50;95.30;;;;;;4993888;28;20129;-75
2021/11/11 04:16:02;;;;;;;21.70;9.93;;;8.50;95.30;;;;;;4994652;28;20439;-76
2021/11/11 04:18:28;;;;;;;21.52;10.85;;;8.50;95.20;;;;;;4993400;28;20084;-75
2021/11/11 04:20:54;;;;;;;19.15;9.85;;;8.50;95.20;;;;;;4994786;28;20030;-75
2021/11/11 04:23:22;;;;;;;20.23;9.63;;;8.50;95.20;;;;;;4994799;28;20387;-75
2021/11/11 04:28:20;;;;;;;22.23;10.05;;;8.50;95.20;;;;;;4995190;28;20077;-74
2021/11/11 04:30:49;;;;;;;20.58;10.73;;;8.50;95.20;;;;;;4994966;28;20080;-75
2021/11/11 04:33:15;;;;;;;18.02;9.98;;;8.60;95.20;;;;;;4995237;28;20030;-75
2021/11/11 04:35:45;;;;;;;21.20;9.55;;;8.60;95.20;;;;;;4994819;28;20390;-75
2021/11/11 04:51:25;;;;;;;17.77;9.43;;;8.60;95.10;;;;;;4994037;28;20030;-75
2021/11/11 05:04:26;;;;;;;21.42;9.73;;;8.60;95.10;;;;;;4994147;28;20117;-77
2021/11/11 05:06:53;;;;;;;19.70;9.15;;;8.70;95.10;;;;;;4992351;28;20023;-76
2021/11/11 05:09:19;;;;;;;20.52;10.35;;;8.70;95.10;;;;;;4993993;28;20026;-76
2021/11/11 05:11:45;;;;;;;20.88;10.50;;;8.70;95.10;;;;;;4993901;28;20038;-76
2021/11/11 05:14:11;;;;;;;25.33;11.60;;;8.70;95.10;;;;;;4992048;28;20038;-75
2021/11/11 05:16:36;;;;;;;20.30;10.32;;;8.70;95.10;;;;;;4992792;28;20469;-75
2021/11/11 05:19:02;;;;;;;23.85;10.07;;;8.70;95.10;;;;;;4993327;28;20482;-75
2021/11/11 05:21:28;;;;;;;23.70;9.90;;;8.70;95.10;;;;;;4993557;28;20382;-76
2021/11/11 05:23:54;;;;;;;19.73;9.98;;;8.70;95.10;;;;;;4992117;28;20447;-76
2021/11/11 05:26:20;;;;;;;20.55;10.88;;;8.70;95.10;;;;;;4993769;28;20105;-76
2021/11/11 05:28:46;;;;;;;21.70;10.65;;;8.70;95.00;;;;;;4993798;28;20034;-75
2021/11/11 05:31:12;;;;;;;16.23;9.18;;;8.70;95.00;;;;;;4993248;28;20372;-76
2021/11/11 05:33:37;;;;;;;20.35;10.18;;;8.60;95.10;;;;;;4993412;28;20045;-76
2021/11/11 05:36:03;;;;;;;18.08;9.73;;;8.70;95.10;;;;;;4992687;28;20034;-75
2021/11/11 05:38:29;;;;;;;23.10;10.40;;;8.70;95.10;;;;;;4992251;28;20018;-76
2021/11/11 05:40:54;;;;;;;19.15;9.32;;;8.70;95.10;;;;;;4993156;28;20032;-76
2021/11/11 05:43:20;;;;;;;20.15;9.52;;;8.70;95.10;;;;;;4992269;28;20023;-75
2021/11/11 05:45:46;;;;;;;18.70;9.57;;;8.70;95.10;;;;;;4993555;28;20065;-75
2021/11/11 05:48:12;;;;;;;20.75;10.68;;;8.80;95.10;;;;;;4993277;28;20333;-76
2021/11/11 05:50:38;;;;;;;21.02;10.10;;;8.80;95.10;;;;;;4993353;28;20035;-75
2021/11/11 05:53:04;;;;;;;20.95;10.23;;;8.80;95.10;;;;;;4991570;28;20022;-74
2021/11/11 05:55:30;;;;;;;23.92;11.38;;;8.80;95.10;;;;;;4992101;28;20106;-75
2021/11/11 05:57:56;;;;;;;18.85;11.20;;;8.70;95.00;;;;;;4990989;28;20085;-75
2021/11/11 06:00:22;;;;;;;20.52;10.20;;;8.70;95.00;;;;;;4991815;28;20202;-75
2021/11/11 06:02:48;;;;;;;19.92;10.75;;;8.80;95.00;;;;;;5024100;28;20027;-74
2021/11/11 06:05:15;;;;;;;22.33;10.98;;;8.80;95.00;;;;;;4990801;28;20049;-75
2021/11/11 06:07:41;;;;;;;19.17;10.13;;;8.80;95.00;;;;;;4993172;28;20029;-75
2021/11/11 06:10:09;;;;;;;22.02;10.60;;;8.70;95.30;;;;;;5024285;28;20446;-75
2021/11/11 06:12:34;;;;;;;18.50;9.80;;;8.80;95.10;;;;;;4991889;28;20027;-74
2021/11/11 06:15:00;;;;;;;18.65;10.95;;;8.80;95.10;;;;;;4992782;28;20026;-75
2021/11/11 06:17:26;;;;;;;20.90;10.82;;;8.80;95.00;;;;;;4992907;28;20478;-76
2021/11/11 06:19:52;;;;;;;19.85;10.25;;;8.80;95.30;;;;;;4991919;28;20041;-75
2021/11/11 06:22:20;;;;;;;19.70;9.95;;;8.80;95.00;;;;;;4992937;28;20165;-74
2021/11/11 06:24:46;;;;;;;22.20;10.43;;;8.80;95.00;;;;;;4992293;28;20019;-75
2021/11/11 06:27:12;;;;;;;25.15;11.00;;;8.70;95.00;;;;;;4991501;28;20459;-74
2021/11/11 06:29:38;;;;;;;18.30;10.25;;;8.70;95.00;;;;;;4991749;28;20375;-75
2021/11/11 06:32:04;;;;;;;23.55;10.38;;;8.70;95.00;;;;;;5024173;28;20026;-75
2021/11/11 06:34:30;;;;;;;20.20;9.80;;;8.70;95.00;;;;;;4992617;28;20019;-74
2021/11/11 06:36:56;;;;;;;21.35;10.32;;;8.80;95.10;;;;;;4991707;28;20033;-75
2021/11/11 06:39:22;;;;;;;24.73;10.75;;;8.80;95.10;;;;;;4991244;28;20031;-76
2021/11/11 06:41:48;;;;;;;22.30;10.60;;;8.80;95.00;;;;;;4992952;28;20077;-76
2021/11/11 06:44:20;;;;;;;19.40;10.75;;;8.80;95.00;;;;;;4991332;28;20391;-76
2021/11/11 06:46:46;;;;;;;17.90;10.27;;;8.80;95.10;;;;;;4992026;28;20360;-76
2021/11/11 06:49:12;;;;;;;18.05;10.43;;;8.80;95.10;;;;;;4996314;28;20026;-75
2021/11/11 06:51:38;;;;;;;22.17;9.90;;;8.80;95.00;;;;;;4995415;28;20022;-75
2021/11/11 06:54:04;;;;;;;17.02;9.13;;;8.80;95.00;;;;;;4994870;28;20022;-74
2021/11/11 06:56:30;;;;;;;20.33;9.70;;;8.70;95.00;;;;;;5028128;28;20117;-74
2021/11/11 06:58:55;;;;;;;23.00;10.07;;;8.80;95.00;;;;;;4996623;28;20050;-74
2021/11/11 07:01:21;;;;;;;18.67;8.93;;;8.80;95.10;;;;;;4994844;28;20478;-74
2021/11/11 07:03:48;;;;;;;23.02;9.80;;;8.80;95.10;;;;;;4996743;28;20360;-75
2021/11/11 07:06:14;;;;;;;18.13;9.88;;;8.80;95.10;;;;;;4995958;28;20026;-75
2021/11/11 07:08:40;;;;;;;18.67;9.70;;;8.80;95.10;;;;;;4996187;28;20034;-75
2021/11/11 07:11:07;;;;;;;18.80;9.63;;;8.80;95.10;;;;;;4994535;28;20085;-75
2021/11/11 07:13:33;;;;;;;19.55;10.27;;;8.80;95.10;;;;;;4996312;28;20025;-75
2021/11/11 07:16:00;;;;;;;16.90;9.07;;;8.80;95.10;;;;;;4994972;28;20093;-75
2021/11/11 07:18:26;;;;;;;18.50;10.02;;;8.80;95.10;;;;;;4994968;28;20030;-74
2021/11/11 07:20:53;;;;;;;19.70;10.20;;;8.80;95.10;;;;;;4994943;28;20105;-75
2021/11/11 07:23:22;;;;;;;21.55;10.13;;;8.80;95.00;;;;;;4995678;28;20106;-75
2021/11/11 07:25:52;;;;;;;20.35;10.23;;;8.80;95.10;;;;;;4996013;28;20027;-75
2021/11/11 07:28:18;;;;;;;23.98;10.30;;;8.90;95.10;;;;;;4995633;28;20093;-75
2021/11/11 07:30:44;;;;;;;17.90;9.25;;;8.90;95.10;;;;;;4994736;28;20019;-75
2021/11/11 07:33:11;;;;;;;18.67;9.15;;;8.90;95.10;;;;;;4994287;28;20069;-76
2021/11/11 07:35:39;;;;;;;17.75;8.85;;;8.90;95.00;;;;;;4995907;28;20117;-75
2021/11/11 07:38:06;;;;;;;18.25;9.60;;;8.90;95.10;;;;;;4995415;28;20467;-75
2021/11/11 07:40:32;;;;;;;19.50;9.40;;;8.90;95.10;;;;;;4994531;28;20089;-76
2021/11/11 07:42:58;;;;;;;19.52;10.40;;;8.90;95.10;;;;;;4995822;28;20093;-76
2021/11/11 07:45:25;;;;;;;18.17;9.75;;;8.90;95.20;;;;;;4995275;28;20058;-75
2021/11/11 07:47:57;;;;;;;20.42;10.52;;;8.90;95.10;;;;;;4995471;28;20042;-74
2021/11/11 07:50:25;;;;;;;20.08;9.60;;;8.90;95.00;;;;;;4995235;28;20546;-74
2021/11/11 07:52:52;;;;;;;17.35;10.05;;;8.90;95.00;;;;;;4995645;28;20022;-77
2021/11/11 07:55:18;;;;;;;18.05;9.93;;;8.90;95.00;;;;;;4993690;28;20053;-75
2021/11/11 07:57:46;;;;;;;23.10;11.32;;;8.90;95.10;;;;;;4995343;28;20050;-75
2021/11/11 08:00:14;;;;;;;20.17;10.80;;;8.90;95.10;;;;;;4992370;28;20033;-75
2021/11/11 08:02:42;;;;;;;17.98;8.75;;;8.90;95.10;;;;;;4994000;28;20124;-75
2021/11/11 08:05:12;;;;;;;23.77;10.15;;;9.00;95.10;;;;;;4994564;28;20029;-75
2021/11/11 08:07:38;;;;;;;21.33;10.20;;;9.00;95.00;;;;;;4994101;28;20112;-75
2021/11/11 08:10:05;;;;;;;22.02;9.82;;;9.00;94.90;;;;;;4994788;28;20423;-75
2021/11/11 08:12:31;;;;;;;20.55;11.00;;;9.00;94.90;;;;;;4995225;28;20105;-75
2021/11/11 08:14:58;;;;;;;19.27;10.05;;;9.00;94.90;;;;;;4995541;28;20493;-75
2021/11/11 08:17:24;;;;;;;20.85;11.35;;;9.00;94.90;;;;;;4993898;28;20026;-75
2021/11/11 08:19:56;;;;;;;24.67;10.82;;;9.00;94.90;;;;;;4993739;28;20039;-75
2021/11/11 08:22:24;;;;;;;18.67;11.55;;;9.00;94.90;;;;;;4994625;28;20026;-75
2021/11/11 08:24:50;;;;;;;26.45;11.82;;;8.90;94.80;;;;;;4995047;28;20057;-74
2021/11/11 08:27:16;;;;;;;21.30;10.93;;;9.00;94.90;;;;;;4995277;28;20027;-75
2021/11/11 08:29:43;;;;;;;22.52;11.43;;;9.00;94.90;;;;;;4995200;28;20034;-74
2021/11/11 08:32:11;;;;;;;21.83;12.05;;;9.00;94.90;;;;;;4993355;28;20449;-75
2021/11/11 08:34:37;;;;;;;21.63;9.88;;;9.00;94.90;;;;;;4995092;28;20117;-75
2021/11/11 08:37:03;;;;;;;18.23;10.57;;;9.00;94.90;;;;;;4994857;28;20110;-74
2021/11/11 08:39:29;;;;;;;21.65;10.27;;;9.00;94.90;;;;;;4994039;28;20030;-75
2021/11/11 08:41:55;;;;;;;25.67;11.32;;;9.00;94.90;;;;;;4993430;28;20030;-75
2021/11/11 08:44:21;;;;;;;22.52;11.95;;;9.00;94.90;;;;;;4994144;28;20049;-75
2021/11/11 08:46:49;;;;;;;19.92;11.02;;;9.10;94.90;;;;;;4994523;28;20026;-75
2021/11/11 08:49:16;;;;;;;19.88;11.07;;;9.10;94.80;;;;;;4994081;28;20034;-75
2021/11/11 08:51:43;;;;;;;24.77;11.93;;;9.10;94.80;;;;;;4993137;28;20030;-75
2021/11/11 08:54:10;;;;;;;21.50;11.00;;;9.10;94.80;;;;;;4992745;28;20065;-75
2021/11/11 08:56:36;;;;;;;20.73;10.85;;;9.10;94.80;;;;;;5026130;28;20427;-75
2021/11/11 08:59:03;;;;;;;24.52;12.02;;;9.10;94.80;;;;;;4994007;28;20058;-75
2021/11/11 09:01:31;;;;;;;22.33;11.68;;;9.10;94.80;;;;;;4993851;28;20022;-75
2021/11/11 09:03:57;;;;;;;20.73;10.98;;;9.20;94.80;;;;;;4992930;28;20022;-75
2021/11/11 09:06:23;;;;;;;20.58;11.02;;;9.20;94.80;;;;;;4993858;28;20182;-77
2021/11/11 09:08:52;;;;;;;21.20;11.38;;;9.20;94.80;;;;;;4993862;28;20162;-75
2021/11/11 09:11:19;;;;;;;22.10;12.07;;;9.20;94.70;;;;;;4992697;28;20031;-76
2021/11/11 09:13:46;;;;;;;25.67;12.02;;;9.20;94.70;;;;;;4993320;28;20033;-76
2021/11/11 09:16:12;;;;;;;23.65;12.18;;;9.20;94.70;;;;;;4994210;28;20025;-76
2021/11/11 09:18:39;;;;;;;22.25;12.20;;;9.30;94.70;;;;;;4993651;28;20022;-76
2021/11/11 09:21:08;;;;;;;23.58;12.05;;;9.30;94.70;;;;;;4993934;28;20030;-75
2021/11/11 09:23:35;;;;;;;22.83;11.80;;;9.30;94.70;;;;;;4992693;28;20030;-75
2021/11/11 09:26:02;;;;;;;27.30;12.98;;;9.40;94.70;;;;;;4993782;28;20026;-75
2021/11/11 09:28:28;;;;;;;21.33;11.23;;;9.40;94.60;;;;;;4991966;28;20032;-75
2021/11/11 09:30:53;;;;;;;19.17;11.65;;;9.40;94.60;;;;;;4993999;28;20113;-75
2021/11/11 09:33:19;;;;;;;20.60;11.73;;;9.50;94.60;;;;;;4991919;28;20192;-75
2021/11/11 09:35:45;;;;;;;23.33;13.27;;;9.50;94.60;;;;;;4992594;28;20134;-75
2021/11/11 09:38:11;;;;;;;24.63;12.85;;;9.60;94.70;;;;;;4993465;28;20030;-76
2021/11/11 09:40:37;;;;;;;24.75;12.63;;;9.60;94.50;;;;;;4993310;28;20034;-75
2021/11/11 09:43:04;;;;;;;25.52;13.20;;;9.70;94.50;;;;;;4993425;28;20033;-75
2021/11/11 09:45:33;;;;;;;21.48;11.63;;;9.70;94.40;;;;;;4992631;28;20442;-75
2021/11/11 09:47:59;;;;;;;28.67;12.38;;;9.80;94.40;;;;;;4993382;28;20014;-75
2021/11/11 09:50:28;;;;;;;25.75;13.63;;;9.80;94.50;;;;;;5024468;28;20470;-75
2021/11/11 09:52:54;;;;;;;24.48;13.57;;;9.80;94.40;;;;;;4993466;28;20033;-75
2021/11/11 10:00:53;;;;;;;23.65;12.00;;;9.90;94.40;;;;;;4993530;28;20042;-75
2021/11/11 10:03:19;;;;;;;21.77;11.23;;;10.00;94.40;;;;;;4991705;28;20022;-76
2021/11/11 10:05:46;;;;;;;18.50;9.82;;;10.00;94.40;;;;;;4993321;28;20027;-76
2021/11/11 10:08:33;;;;;;;25.55;13.27;;;10.00;94.30;;;;;;4993170;28;20026;-73
2021/11/11 10:10:59;;;;;;;30.85;13.55;;;10.10;94.20;;;;;;4993110;28;20030;-75
2021/11/11 10:13:25;;;;;;;28.40;13.35;;;10.10;94.20;;;;;;4992340;28;20033;-75
2021/11/11 10:16:14;;;;;;;19.83;9.85;;;10.20;94.20;;;;;;4993113;28;20022;-75
2021/11/11 10:18:42;;;;;;;28.38;13.35;;;10.30;94.10;;;;;;4992868;28;20027;-75
2021/11/11 10:21:49;;;;;;;27.95;12.90;;;10.30;94.10;;;;;;4992809;28;20108;-75
2021/11/11 10:24:12;;;;;;;26.38;12.80;;;10.30;94.10;;;;;;4992874;28;20022;-75
2021/11/11 10:26:41;;;;;;;25.17;12.23;;;10.30;94.10;;;;;;4992314;28;20161;-75
2021/11/11 10:29:20;;;;;;;26.98;12.85;;;10.30;94.00;;;;;;4992795;28;20489;-75
2021/11/11 10:31:59;;;;;;;27.15;14.13;;;10.30;94.00;;;;;;4993042;28;20026;-75
2021/11/11 10:34:25;;;;;;;24.58;12.73;;;10.40;94.00;;;;;;4991122;28;20026;-75
2021/11/11 10:36:52;;;;;;;29.30;14.65;;;10.40;93.90;;;;;;4992921;28;20084;-76
2021/11/11 10:39:29;;;;;;;24.80;12.65;;;10.40;93.90;;;;;;4990766;28;20033;-75
2021/11/11 10:41:58;;;;;;;30.88;13.35;;;10.50;93.80;;;;;;4991744;28;20100;-76
2021/11/11 10:44:28;;;;;;;31.23;13.80;;;10.50;93.80;;;;;;4990645;28;20061;-76
2021/11/11 10:46:58;;;;;;;26.53;13.83;;;10.50;93.60;;;;;;5024381;28;20030;-76
2021/11/11 10:49:34;;;;;;;23.00;12.77;;;10.60;93.70;;;;;;4992001;28;20102;-76
2021/11/11 10:52:19;;;;;;;24.08;11.93;;;10.60;93.60;;;;;;4992519;28;20491;-75
2021/11/11 10:55:06;;;;;;;28.13;13.23;;;10.70;93.60;;;;;;5024094;28;20033;-75
2021/11/11 10:57:42;;;;;;;30.13;12.88;;;10.70;93.60;;;;;;4990475;28;20026;-75
2021/11/11 11:00:16;;;;;;;25.40;13.07;;;10.70;93.60;;;;;;4992364;28;20042;-75
2021/11/11 11:02:51;;;;;;;18.27;9.07;;;10.80;93.50;;;;;;4992664;28;20050;-75
2021/11/11 11:05:18;;;;;;;19.90;11.63;;;10.90;93.50;;;;;;5023693;28;20467;-74
2021/11/11 11:07:47;;;;;;;27.42;11.82;;;10.90;93.40;;;;;;4991344;28;20022;-76
2021/11/11 11:10:17;;;;;;;27.02;12.88;;;11.00;93.40;;;;;;4991438;28;20026;-75
2021/11/11 11:12:44;;;;;;;32.40;14.13;;;11.00;93.40;;;;;;4992543;28;20022;-75
2021/11/11 11:15:40;;;;;;;29.10;13.02;;;11.00;93.30;;;;;;4991153;28;20066;-75
2021/11/11 11:18:07;;;;;;;27.80;13.55;;;11.00;93.30;;;;;;5023993;28;20038;-76
2021/11/11 11:20:34;;;;;;;27.67;12.40;;;11.10;93.40;;;;;;4992206;28;20034;-75
2021/11/11 11:23:17;;;;;;;28.75;13.32;;;11.00;93.30;;;;;;4991067;28;20172;-75
2021/11/11 11:26:09;;;;;;;24.58;13.45;;;11.10;93.30;;;;;;5024270;28;20038;-75
2021/11/11 11:28:42;;;;;;;27.25;13.52;;;11.10;93.30;;;;;;4992310;28;20037;-75
2021/11/11 11:31:09;;;;;;;29.90;12.55;;;11.10;93.30;;;;;;4992294;28;20533;-76
2021/11/11 11:33:45;;;;;;;25.35;12.32;;;11.10;93.40;;;;;;4991766;28;20030;-75
2021/11/11 11:36:30;;;;;;;26.33;14.90;;;11.10;93.40;;;;;;4995808;28;20029;-76
2021/11/11 11:38:56;;;;;;;24.73;13.25;;;11.00;93.40;;;;;;4995453;28;20398;-76
2021/11/11 11:41:31;;;;;;;22.20;12.23;;;11.00;93.40;;;;;;4993878;28;20026;-76
2021/11/11 11:44:20;;;;;;;21.88;11.35;;;11.00;93.50;;;;;;4995656;28;20026;-76
2021/11/11 11:47:19;;;;;;;21.23;11.65;;;11.00;93.60;;;;;;4995607;28;20030;-74
2021/11/11 11:49:51;;;;;;;20.20;9.48;;;11.00;93.60;;;;;;4998971;28;20062;-76
2021/11/11 11:52:18;;;;;;;26.95;13.32;;;10.90;93.60;;;;;;4994415;28;20076;-76
2021/11/11 11:54:50;;;;;;;24.58;12.45;;;11.00;93.60;;;;;;4993933;28;20038;-75
2021/11/11 11:57:28;;;;;;;24.02;11.93;;;10.90;93.60;;;;;;4995543;28;20034;-76
2021/11/11 12:00:04;;;;;;;25.27;13.40;;;10.90;93.70;;;;;;5027083;28;20031;-75
2021/11/11 12:13:29;;;;;;;25.63;13.30;;;10.90;93.70;;;;;;5004251;28;20062;-75
2021/11/11 12:16:20;;;;;;;23.63;11.80;;;11.00;93.70;;;;;;4994905;28;20378;-75
2021/11/11 12:38:42;;;;;;;27.77;13.55;;;10.90;93.70;;;;;;4999275;28;20488;-76
2021/11/11 12:41:12;;;;;;;24.17;12.98;;;10.90;93.70;;;;;;4994772;28;20030;-75
2021/11/11 12:43:38;;;;;;;21.92;12.40;;;11.00;93.70;;;;;;4994191;28;20068;-75
2021/11/11 12:46:05;;;;;;;28.67;12.82;;;11.00;93.70;;;;;;4994102;28;20030;-74
2021/11/11 12:48:31;;;;;;;29.15;13.82;;;11.10;93.70;;;;;;4993979;28;20045;-75
2021/11/11 12:51:00;;;;;;;26.13;13.52;;;11.00;93.70;;;;;;4994488;28;20455;-76
2021/11/11 12:53:32;;;;;;;24.25;12.18;;;11.10;93.70;;;;;;4993978;28;20018;-74
2021/11/11 12:56:01;;;;;;;25.52;12.88;;;11.00;93.70;;;;;;4994104;28;20045;-75
2021/11/11 12:59:01;;;;;;;22.45;11.85;;;11.10;93.80;;;;;;5024974;28;20053;-75
2021/11/11 13:01:30;;;;;;;27.48;13.25;;;11.10;93.80;;;;;;4997465;28;20046;-75
2021/11/11 13:04:03;;;;;;;29.38;13.80;;;11.20;93.80;;;;;;4992879;28;20027;-75
2021/11/11 13:06:39;;;;;;;22.40;11.43;;;11.20;93.80;;;;;;5025422;28;20025;-75
2021/11/11 13:09:21;;;;;;;20.98;10.68;;;11.20;93.80;;;;;;4994416;28;20033;-75
2021/11/11 13:12:10;;;;;;;28.27;13.75;;;11.20;93.80;;;;;;4993696;28;20029;-76
2021/11/11 13:14:43;;;;;;;23.67;13.25;;;11.30;93.80;;;;;;5025160;28;20033;-75
2021/11/11 13:17:11;;;;;;;23.92;12.07;;;11.30;93.70;;;;;;4994473;28;20045;-75
2021/11/11 13:19:44;;;;;;;27.52;13.65;;;11.30;93.70;;;;;;4992070;28;20035;-75
2021/11/11 13:22:28;;;;;;;30.13;13.05;;;11.30;93.70;;;;;;4992721;28;20037;-75
2021/11/11 15:17:22;;;;;;;19.80;10.57;;;11.30;94.40;;;;;;4996601;28;20481;-75
2021/11/11 15:20:52;;;;;;;20.98;12.15;;;11.20;94.30;;;;;;4994428;28;20117;-76
2021/11/11 15:57:30;;;;;;;25.88;12.30;;;11.20;94.60;;;;;;4995362;28;20049;-75
2021/11/11 16:27:19;;;;;;;24.90;12.52;;;11.00;94.90;;;;;;4995179;28;20434;-76
2021/11/11 16:29:46;;;;;;;26.60;13.25;;;10.90;95.00;;;;;;4994645;28;20030;-76
2021/11/11 16:32:12;;;;;;;25.10;12.68;;;11.00;94.90;;;;;;4993771;28;20041;-76
2021/11/11 16:34:38;;;;;;;24.58;13.85;;;11.00;94.90;;;;;;4994812;28;20427;-76
2021/11/11 16:37:06;;;;;;;23.77;13.13;;;11.00;95.00;;;;;;4993574;28;20027;-76
2021/11/11 16:39:33;;;;;;;24.33;11.32;;;11.00;95.00;;;;;;4994810;28;20030;-76
2021/11/11 16:41:58;;;;;;;25.85;13.77;;;11.00;94.90;;;;;;4994141;28;20486;-74